Cherry Plain, NY (12040)

9:47 AM EDT on July 28, 2015 (GMT -0400)
Five Corners Historic District | | Change Station
CLOSE
Current Station
Personal Weather Station
Location: Williamstown, MA
Elevation: 902 ft
Nearby Weather Stations

Elev 902 ft 42.66 °N, 73.24 °W | Updated 25 seconds ago

Partly Cloudy
Partly Cloudy
77.3 °F
Feels Like 79 °F
N
0.0
Wind Variable Wind from North
Gusts 0.0 mph

Today
High -- | Low -- °F
--% Chance of Precip.
Yesterday
High -- | Low -- °F
Precip. -- in
5:40 AM 8:18 PM
Waxing Gibbous, 89% visible
Pressure 30.03 in
Visibility 7.0 miles
Clouds Scattered Clouds 200 ft
Heat Index 79 °F
Dew Point 68 °F
Humidity 73%
Rainfall 0.00 in
Snow Depth Not available.
UV 4 out of 12
Pollen 6.00 out of 12
Air Quality Not available.
Flu Activity Not available.
SPECI KAQW 281311Z AUTO 00000KT 7SM SCT002 21/19 A3003 RMK AO2 T02060194

More Conditions Fewer Conditions

Pressure 30.03 in
Visibility 7.0 miles
Clouds Scattered Clouds 200 ft
Heat Index 79 °F
Dew Point 68 °F
Humidity 73%
Rainfall 0.00 in
Snow Depth Not available.
UV 4 out of 12
Pollen 6.00 out of 12
Air Quality Not available.
Flu Activity Not available.
SPECI KAQW 281311Z AUTO 00000KT 7SM SCT002 21/19 A3003 RMK AO2 T02060194

More Conditions Fewer Conditions

10-Day Weather Forecast

×

Almanac

Astronomy

Jul. 28, 2015 Rise Set
Actual Time
Civil Twilight
Nautical Twilight
Astronomical Twilight
Moon
Length of Visible Light
Length of Day
Tomorrow will be .
, % of the Moon is Illuminated

Today's Extremes

State Highs State Lows

Community

WunderPhotos

Upload Photos

1,841,832 photos uploaded!

WunderBlogs® & News

Nearby

Air Quality

  Air Quality AQ Index Pollutant
Not available.

Snow Depth

Station Depth Elevation

Earthquake Activity

City Distance Mag. Time & Date
Minimum magnitude displayed is 2.5.

Coastal Water Temperatures

Place Temperature

Stations

Nearby Weather Stations

Station Location Temp. Windchill Dew Point Humidity Wind Precip. Elev Updated Type